Time;durP1;ratioP1;P1;durP2;ratioP2;P2;SDS_P1;SDS_P2;PMS_P1;PMS_P2;Temp;Humidity;BMP_temperature;BMP_pressure;BME280_temperature;BME280_humidity;BME280_pressure;Samples;Min_cycle;Max_cycle;Signal;HPM_P1;HPM_P2
2022/04/27 00:01:11;;;;;;;0.40;0.40;;;10.60;93.70;;;;;;5014156;28;20946;-72
2022/04/27 00:03:59;;;;;;;0.40;0.40;;;10.60;94.20;;;;;;5013713;28;20425;-71
2022/04/27 00:06:47;;;;;;;0.50;0.50;;;10.40;94.70;;;;;;5012963;28;20611;-71
2022/04/27 00:09:35;;;;;;;0.50;0.50;;;10.30;95.30;;;;;;5012681;28;20438;-71
2022/04/27 00:12:24;;;;;;;0.47;0.47;;;10.20;96.00;;;;;;5011954;28;20430;-70
2022/04/27 00:15:13;;;;;;;0.50;0.50;;;10.10;96.50;;;;;;5012724;28;20453;-71
2022/04/27 00:18:02;;;;;;;0.57;0.57;;;10.00;97.10;;;;;;5013556;28;20446;-71
2022/04/27 00:20:51;;;;;;;0.50;0.50;;;9.90;98.20;;;;;;5011906;28;20429;-71
2022/04/27 00:23:39;;;;;;;0.50;0.50;;;9.90;99.00;;;;;;5016670;28;20794;-71
2022/04/27 00:26:27;;;;;;;0.50;0.50;;;9.80;99.20;;;;;;5018154;28;20461;-71
2022/04/27 00:29:15;;;;;;;0.50;0.50;;;9.60;99.90;;;;;;5018363;28;20426;-71
2022/04/27 00:32:04;;;;;;;0.50;0.50;;;9.60;99.90;;;;;;5017415;28;20480;-71
2022/04/27 00:34:54;;;;;;;0.50;0.50;;;9.60;99.90;;;;;;5017495;28;20422;-71
2022/04/27 00:37:42;;;;;;;0.50;0.50;;;9.50;99.90;;;;;;5018690;28;20446;-71
2022/04/27 00:40:30;;;;;;;0.50;0.50;;;9.40;99.90;;;;;;5016492;28;20564;-71
2022/04/27 00:43:35;;;;;;;0.50;0.50;;;9.40;99.90;;;;;;5017272;28;20484;-71
2022/04/27 00:46:23;;;;;;;0.50;0.50;;;9.30;99.90;;;;;;5017839;28;20556;-71
2022/04/27 00:49:11;;;;;;;0.50;0.50;;;9.30;99.90;;;;;;5000908;28;20454;-72
2022/04/27 00:52:01;;;;;;;0.50;0.50;;;9.20;99.90;;;;;;5018875;28;20422;-71
2022/04/27 00:54:51;;;;;;;0.50;0.50;;;9.20;99.90;;;;;;5019301;28;20449;-71
2022/04/27 00:57:42;;;;;;;0.50;0.50;;;9.10;99.90;;;;;;5018718;28;20508;-71
2022/04/27 01:00:30;;;;;;;0.50;0.50;;;9.10;99.90;;;;;;5018499;28;21040;-70
2022/04/27 01:03:19;;;;;;;0.50;0.50;;;9.00;99.90;;;;;;5017757;28;20445;-70
2022/04/27 01:06:07;;;;;;;0.50;0.50;;;8.90;99.90;;;;;;5017854;28;20429;-71
2022/04/27 01:08:57;;;;;;;0.60;0.60;;;8.90;99.90;;;;;;5017521;28;20954;-71
2022/04/27 01:11:45;;;;;;;0.50;0.50;;;8.80;99.90;;;;;;5018846;28;20429;-70
2022/04/27 01:14:41;;;;;;;0.50;0.50;;;8.80;99.90;;;;;;5030481;28;20484;-71
2022/04/27 01:17:29;;;;;;;0.40;0.40;;;8.70;99.90;;;;;;5017481;28;20449;-71
2022/04/27 01:20:18;;;;;;;1.50;1.03;;;8.60;99.90;;;;;;5017968;28;20465;-70
2022/04/27 01:23:07;;;;;;;0.50;0.50;;;8.60;99.90;;;;;;5019397;28;20464;-70
2022/04/27 01:26:01;;;;;;;0.50;0.50;;;8.50;99.90;;;;;;5018599;28;20432;-71
2022/04/27 01:28:50;;;;;;;0.40;0.40;;;8.50;99.90;;;;;;5015852;28;20528;-70
2022/04/27 01:31:38;;;;;;;0.50;0.50;;;8.50;99.90;;;;;;5017490;28;20505;-71
2022/04/27 01:34:26;;;;;;;0.50;0.50;;;8.40;99.90;;;;;;5015968;28;20817;-69
2022/04/27 01:40:21;;;;;;;0.50;0.50;;;8.40;99.90;;;;;;5017358;28;20438;-71
2022/04/27 01:43:09;;;;;;;0.60;0.60;;;8.30;99.90;;;;;;5017285;28;20422;-71
2022/04/27 01:45:57;;;;;;;0.50;0.50;;;8.30;99.90;;;;;;5017063;28;21017;-71
2022/04/27 01:48:45;;;;;;;0.50;0.50;;;8.30;99.90;;;;;;5016687;28;20489;-71
2022/04/27 01:54:39;;;;;;;0.50;0.50;;;8.20;99.90;;;;;;5015801;28;20437;-70
2022/04/27 01:57:33;;;;;;;0.50;0.50;;;8.20;99.90;;;;;;5015620;28;20457;-71
2022/04/27 02:00:21;;;;;;;0.40;0.40;;;8.20;99.90;;;;;;5015083;28;20458;-71
2022/04/27 02:03:09;;;;;;;0.50;0.50;;;8.10;99.90;;;;;;5016619;28;20517;-71
2022/04/27 02:05:59;;;;;;;0.40;0.40;;;8.10;99.90;;;;;;5015712;28;20426;-71
2022/04/27 02:08:47;;;;;;;0.50;0.50;;;8.00;99.90;;;;;;5015801;28;20552;-70
2022/04/27 02:11:35;;;;;;;0.50;0.50;;;7.90;99.90;;;;;;5015793;28;20437;-71
2022/04/27 02:14:25;;;;;;;0.50;0.50;;;7.80;99.90;;;;;;5016440;28;20437;-71
2022/04/27 02:17:13;;;;;;;0.50;0.50;;;7.80;99.90;;;;;;5016288;28;20445;-70
2022/04/27 02:20:01;;;;;;;0.40;0.40;;;7.80;99.90;;;;;;5016363;28;20433;-71
2022/04/27 02:22:49;;;;;;;0.50;0.50;;;7.80;99.90;;;;;;5015620;28;20516;-71
2022/04/27 02:25:37;;;;;;;0.50;0.50;;;7.70;99.90;;;;;;5015262;28;20422;-70
2022/04/27 02:28:25;;;;;;;0.40;0.40;;;7.70;99.90;;;;;;5015597;28;20931;-70
2022/04/27 02:31:15;;;;;;;0.50;0.50;;;7.70;99.90;;;;;;5016301;28;20457;-71
2022/04/27 02:34:03;;;;;;;0.50;0.50;;;7.60;99.90;;;;;;5015503;28;20429;-70
2022/04/27 02:36:51;;;;;;;1.37;0.77;;;7.60;99.90;;;;;;5015861;28;20453;-72
2022/04/27 02:39:39;;;;;;;2.20;1.27;;;7.70;99.90;;;;;;5014705;28;20943;-70
2022/04/27 02:42:27;;;;;;;0.50;0.50;;;7.60;99.90;;;;;;5014485;28;20641;-70
2022/04/27 02:45:15;;;;;;;0.40;0.40;;;7.60;99.90;;;;;;5014597;28;20430;-71
2022/04/27 02:48:06;;;;;;;0.50;0.50;;;7.60;99.90;;;;;;5014942;28;20469;-70
2022/04/27 02:53:59;;;;;;;0.40;0.40;;;7.50;99.90;;;;;;5015230;28;20460;-71
2022/04/27 02:56:47;;;;;;;0.50;0.50;;;7.50;99.90;;;;;;5014067;28;20453;-72
2022/04/27 02:59:36;;;;;;;0.50;0.50;;;7.50;99.90;;;;;;5014280;28;20426;-71
2022/04/27 03:02:24;;;;;;;0.50;0.50;;;7.40;99.90;;;;;;5014150;28;20499;-69
2022/04/27 03:05:13;;;;;;;0.40;0.40;;;7.30;99.90;;;;;;5013311;28;20428;-71
2022/04/27 03:08:01;;;;;;;0.50;0.50;;;7.30;99.90;;;;;;5014860;28;20474;-70
2022/04/27 03:10:49;;;;;;;0.40;0.40;;;7.30;99.90;;;;;;5014806;28;20445;-71
2022/04/27 03:13:37;;;;;;;0.50;0.50;;;7.30;99.90;;;;;;5015491;28;20501;-71
2022/04/27 03:16:26;;;;;;;0.50;0.50;;;7.30;99.90;;;;;;5014335;28;20425;-70
2022/04/27 03:19:14;;;;;;;0.40;0.40;;;7.20;99.90;;;;;;5014209;28;20512;-71
2022/04/27 03:22:04;;;;;;;0.50;0.50;;;7.10;99.90;;;;;;5013013;28;20426;-71
2022/04/27 03:24:52;;;;;;;0.50;0.50;;;7.10;99.90;;;;;;5013388;28;20434;-70
2022/04/27 03:27:40;;;;;;;0.50;0.50;;;7.10;99.90;;;;;;5014142;28;20549;-72
2022/04/27 03:30:28;;;;;;;0.47;0.47;;;7.10;99.90;;;;;;5014079;28;20432;-70
2022/04/27 03:33:16;;;;;;;0.40;0.40;;;7.00;99.90;;;;;;5012613;28;20507;-72
2022/04/27 03:36:06;;;;;;;0.50;0.50;;;6.90;99.90;;;;;;5013196;28;20509;-70
2022/04/27 03:38:55;;;;;;;0.50;0.50;;;6.90;99.90;;;;;;5012974;28;20419;-71
2022/04/27 03:41:43;;;;;;;0.50;0.50;;;6.80;99.90;;;;;;5012718;28;20460;-70
2022/04/27 03:44:31;;;;;;;0.40;0.40;;;6.80;99.90;;;;;;5013026;28;20436;-70
2022/04/27 03:47:20;;;;;;;0.50;0.50;;;6.70;99.90;;;;;;5012766;28;20844;-70
2022/04/27 03:50:09;;;;;;;0.40;0.40;;;6.60;99.90;;;;;;5012740;28;20438;-69
2022/04/27 03:52:57;;;;;;;0.40;0.40;;;6.60;99.90;;;;;;5012896;28;20841;-71
2022/04/27 03:55:47;;;;;;;0.50;0.50;;;6.60;99.90;;;;;;5013922;28;20526;-71
2022/04/27 03:58:35;;;;;;;0.40;0.40;;;6.70;99.90;;;;;;5012464;28;20473;-71
2022/04/27 04:01:23;;;;;;;0.47;0.47;;;6.50;99.90;;;;;;5013555;28;21042;-70
2022/04/27 04:04:11;;;;;;;0.40;0.40;;;6.50;99.90;;;;;;5012798;28;20645;-69
2022/04/27 04:06:59;;;;;;;0.40;0.40;;;6.40;99.90;;;;;;5012515;28;20705;-70
2022/04/27 04:09:47;;;;;;;0.40;0.40;;;6.40;99.90;;;;;;5013548;28;20644;-71
2022/04/27 04:12:37;;;;;;;0.50;0.50;;;6.40;99.90;;;;;;5015920;28;20697;-71
2022/04/27 04:15:25;;;;;;;0.50;0.50;;;6.40;99.90;;;;;;5013712;28;20425;-70
2022/04/27 04:18:13;;;;;;;0.50;0.50;;;6.50;99.90;;;;;;5012468;28;20551;-71
2022/04/27 04:21:01;;;;;;;0.50;0.50;;;6.40;99.90;;;;;;5014106;28;20434;-71
2022/04/27 04:23:49;;;;;;;0.47;0.47;;;6.60;99.90;;;;;;5012556;28;20452;-71
2022/04/27 04:29:44;;;;;;;0.50;0.50;;;6.50;99.90;;;;;;5013231;28;20544;-71
2022/04/27 04:32:37;;;;;;;0.47;0.47;;;6.50;99.90;;;;;;5013287;28;20433;-71
2022/04/27 04:35:26;;;;;;;0.50;0.50;;;6.60;99.90;;;;;;5012361;28;20453;-70
2022/04/27 04:38:14;;;;;;;0.50;0.50;;;6.70;99.90;;;;;;5013749;28;20465;-71
2022/04/27 04:41:02;;;;;;;0.50;0.50;;;6.70;99.90;;;;;;5011825;28;20437;-71
2022/04/27 04:43:50;;;;;;;0.40;0.40;;;6.70;99.90;;;;;;5012283;28;20854;-71
2022/04/27 04:46:40;;;;;;;0.50;0.50;;;6.80;99.90;;;;;;5012680;28;20461;-71
2022/04/27 04:49:28;;;;;;;0.50;0.50;;;6.90;99.90;;;;;;5012240;28;20559;-70
2022/04/27 04:52:16;;;;;;;0.40;0.40;;;6.80;99.90;;;;;;5013044;28;20433;-70
2022/04/27 04:55:05;;;;;;;0.40;0.40;;;7.00;99.90;;;;;;5012708;28;20816;-70
2022/04/27 04:57:53;;;;;;;0.50;0.50;;;7.10;99.90;;;;;;5012865;28;20454;-71
2022/04/27 05:00:41;;;;;;;0.50;0.50;;;7.10;99.90;;;;;;5012821;28;20795;-70
2022/04/27 05:03:31;;;;;;;0.40;0.40;;;7.20;99.90;;;;;;5013448;28;20426;-73
2022/04/27 05:06:19;;;;;;;0.60;0.60;;;7.40;99.90;;;;;;5012872;28;20806;-71
2022/04/27 05:09:07;;;;;;;0.50;0.50;;;7.50;99.90;;;;;;5015187;28;20461;-70
2022/04/27 05:11:55;;;;;;;0.50;0.50;;;7.50;99.90;;;;;;5016123;28;20438;-71
2022/04/27 05:14:43;;;;;;;0.50;0.50;;;7.70;99.90;;;;;;5016918;28;20430;-70
2022/04/27 05:17:31;;;;;;;0.40;0.40;;;8.00;99.90;;;;;;5017661;28;20540;-71
2022/04/27 05:20:21;;;;;;;0.47;0.47;;;8.20;99.90;;;;;;5017217;28;20465;-70
2022/04/27 05:23:11;;;;;;;0.50;0.50;;;8.30;99.90;;;;;;5015305;28;20433;-71
2022/04/27 05:25:59;;;;;;;0.60;0.60;;;8.40;99.90;;;;;;5015585;28;20438;-71
2022/04/27 05:31:57;;;;;;;1.57;1.57;;;8.50;99.90;;;;;;5016288;28;20433;-71
2022/04/27 05:34:45;;;;;;;0.50;0.50;;;8.60;99.90;;;;;;5017031;28;20441;-71
2022/04/27 05:37:35;;;;;;;0.50;0.50;;;8.60;99.90;;;;;;5019536;28;20454;-71
2022/04/27 05:40:25;;;;;;;0.50;0.50;;;8.70;99.90;;;;;;5015142;28;20426;-71
2022/04/27 05:43:13;;;;;;;0.40;0.40;;;8.60;99.90;;;;;;5016272;28;20526;-71
2022/04/27 05:46:01;;;;;;;2.30;2.10;;;8.80;99.90;;;;;;5015941;28;20453;-70
2022/04/27 05:48:49;;;;;;;0.40;0.40;;;8.90;99.90;;;;;;5025901;28;20466;-78
2022/04/27 05:51:38;;;;;;;0.50;0.50;;;8.80;99.90;;;;;;5044390;28;20455;-75
2022/04/27 05:54:27;;;;;;;0.40;0.40;;;8.80;99.90;;;;;;5042953;28;20516;-74
2022/04/27 05:57:15;;;;;;;0.50;0.50;;;8.80;99.90;;;;;;5043137;28;20821;-74
2022/04/27 06:00:04;;;;;;;0.50;0.50;;;8.80;99.90;;;;;;5042265;28;20441;-74
2022/04/27 06:02:52;;;;;;;0.50;0.50;;;8.90;99.90;;;;;;5042310;28;20805;-74
2022/04/27 06:05:41;;;;;;;0.50;0.50;;;8.90;99.90;;;;;;5042644;28;20436;-73
2022/04/27 06:08:29;;;;;;;2.60;2.50;;;8.90;99.90;;;;;;5043063;28;20476;-76
2022/04/27 06:11:19;;;;;;;0.50;0.50;;;9.00;99.90;;;;;;5040722;28;20426;-75
2022/04/27 06:14:07;;;;;;;0.40;0.40;;;9.00;99.90;;;;;;5039016;28;20487;-74
2022/04/27 06:16:55;;;;;;;0.50;0.50;;;9.20;99.90;;;;;;5038127;28;20528;-73
2022/04/27 06:19:44;;;;;;;0.40;0.40;;;9.70;99.90;;;;;;5035797;28;20471;-72
2022/04/27 06:22:32;;;;;;;0.40;0.40;;;10.00;99.90;;;;;;5038682;28;20434;-74
2022/04/27 06:25:20;;;;;;;0.50;0.50;;;10.30;99.90;;;;;;5039062;28;20850;-74
2022/04/27 06:28:09;;;;;;;1.63;0.70;;;10.60;99.90;;;;;;5039219;28;20445;-74
2022/04/27 06:30:57;;;;;;;4.33;4.13;;;10.60;99.90;;;;;;5040405;28;20544;-74
2022/04/27 06:33:45;;;;;;;0.40;0.40;;;10.70;99.90;;;;;;5019768;28;20473;-75
2022/04/27 06:36:34;;;;;;;0.50;0.50;;;10.50;99.90;;;;;;5020362;28;20901;-76
2022/04/27 06:39:22;;;;;;;0.40;0.40;;;10.50;99.90;;;;;;5021054;28;20465;-72
2022/04/27 06:42:10;;;;;;;0.40;0.40;;;10.50;99.90;;;;;;5020623;28;20454;-72
2022/04/27 06:45:02;;;;;;;0.50;0.50;;;10.60;99.90;;;;;;5023591;28;20426;-74
2022/04/27 06:47:50;;;;;;;4.57;3.30;;;10.80;99.90;;;;;;5023741;28;20458;-76
2022/04/27 06:50:38;;;;;;;0.40;0.40;;;11.00;99.90;;;;;;5021456;28;20515;-76
2022/04/27 06:53:26;;;;;;;1.43;1.40;;;11.40;99.90;;;;;;5004639;28;20431;-75
2022/04/27 06:56:16;;;;;;;0.50;0.50;;;11.60;99.90;;;;;;5005288;28;20473;-74
2022/04/27 06:59:04;;;;;;;1.67;1.67;;;12.00;99.90;;;;;;5015087;28;20456;-75
2022/04/27 07:01:55;;;;;;;0.40;0.40;;;12.00;99.90;;;;;;5024247;28;20477;-75
2022/04/27 07:04:48;;;;;;;0.50;0.50;;;12.10;99.90;;;;;;5024991;28;20845;-73
2022/04/27 07:07:37;;;;;;;0.40;0.40;;;12.00;99.90;;;;;;5023710;28;20472;-74
2022/04/27 07:10:25;;;;;;;0.40;0.40;;;12.00;99.90;;;;;;5024343;28;20478;-74
2022/04/27 07:13:13;;;;;;;0.60;0.60;;;11.90;99.90;;;;;;5022527;28;20430;-74
2022/04/27 07:16:01;;;;;;;0.50;0.50;;;11.80;99.90;;;;;;5024633;28;20469;-74
2022/04/27 07:18:53;;;;;;;25.43;5.03;;;11.70;99.90;;;;;;5023549;28;20440;-75
2022/04/27 07:21:42;;;;;;;1.00;1.00;;;11.70;99.90;;;;;;5023109;28;20418;-74
2022/04/27 07:24:30;;;;;;;0.50;0.50;;;11.70;99.90;;;;;;5026128;28;20489;-74
2022/04/27 07:27:18;;;;;;;0.50;0.50;;;11.70;99.90;;;;;;5026756;28;20458;-73
2022/04/27 07:30:08;;;;;;;1.60;1.50;;;11.70;99.90;;;;;;5022248;28;20478;-75
2022/04/27 07:32:56;;;;;;;1.43;1.33;;;11.80;99.90;;;;;;5018857;28;20450;-74
2022/04/27 07:35:45;;;;;;;0.40;0.40;;;11.80;99.90;;;;;;5019904;28;20426;-74
2022/04/27 07:38:33;;;;;;;0.50;0.50;;;11.90;99.90;;;;;;5020509;28;20533;-76
2022/04/27 07:41:21;;;;;;;2.10;2.00;;;12.00;99.90;;;;;;5022146;28;20507;-76
2022/04/27 07:44:09;;;;;;;2.83;0.93;;;12.10;99.90;;;;;;5015030;28;20430;-74
2022/04/27 07:46:57;;;;;;;0.90;0.90;;;12.20;99.90;;;;;;5014610;28;20493;-76
2022/04/27 07:49:47;;;;;;;1.40;1.03;;;12.20;99.90;;;;;;5035555;28;20552;-75
2022/04/27 07:52:37;;;;;;;1.20;1.20;;;12.20;99.90;;;;;;5035732;28;20441;-75
2022/04/27 07:55:25;;;;;;;2.50;1.90;;;12.30;99.90;;;;;;5036896;28;20428;-74
2022/04/27 07:58:13;;;;;;;3.60;2.00;;;12.30;99.90;;;;;;5035267;28;20579;-75
2022/04/27 08:01:02;;;;;;;0.90;0.90;;;12.40;99.90;;;;;;5035517;28;20856;-73
2022/04/27 08:03:50;;;;;;;2.17;1.13;;;12.50;99.90;;;;;;5033063;28;20873;-75
2022/04/27 08:06:38;;;;;;;1.27;1.27;;;12.40;99.90;;;;;;5016286;28;20915;-74
2022/04/27 08:09:28;;;;;;;3.27;2.07;;;12.40;99.90;;;;;;5016624;28;20468;-76
2022/04/27 08:12:16;;;;;;;0.60;0.60;;;12.50;99.90;;;;;;5002958;28;20514;-73
2022/04/27 08:15:04;;;;;;;3.40;1.27;;;12.50;99.90;;;;;;5001327;28;20511;-75
2022/04/27 08:17:54;;;;;;;0.50;0.50;;;12.60;99.90;;;;;;5013242;28;20461;-76
2022/04/27 08:23:50;;;;;;;0.57;0.57;;;12.70;99.90;;;;;;5036003;28;20459;-75
2022/04/27 08:26:41;;;;;;;4.40;4.00;;;12.80;99.90;;;;;;5028565;28;21011;-74
2022/04/27 08:29:29;;;;;;;1.07;1.07;;;12.90;99.90;;;;;;5025330;28;20478;-74
2022/04/27 08:32:17;;;;;;;0.50;0.50;;;12.90;99.90;;;;;;5023027;28;20422;-75
2022/04/27 08:35:06;;;;;;;1.00;0.80;;;13.00;99.90;;;;;;5023242;28;20963;-74
2022/04/27 08:37:54;;;;;;;0.70;0.70;;;13.00;99.90;;;;;;5022413;28;20450;-75
2022/04/27 08:40:46;;;;;;;0.70;0.70;;;13.10;99.90;;;;;;5025067;28;20210;-74
2022/04/27 08:43:36;;;;;;;2.97;2.83;;;13.10;99.90;;;;;;5024716;28;20425;-74
2022/04/27 08:46:26;;;;;;;0.40;0.40;;;13.30;99.90;;;;;;5028642;28;20426;-73
2022/04/27 08:49:15;;;;;;;0.40;0.40;;;13.40;99.90;;;;;;5030412;28;20425;-74
2022/04/27 08:52:03;;;;;;;0.50;0.50;;;13.30;99.90;;;;;;5028423;28;20485;-75
2022/04/27 08:54:51;;;;;;;1.57;1.30;;;13.40;99.90;;;;;;5028678;28;20430;-73
2022/04/27 08:57:40;;;;;;;2.43;1.80;;;13.50;99.90;;;;;;5027321;28;20500;-75
2022/04/27 09:00:29;;;;;;;0.40;0.40;;;13.60;99.90;;;;;;5027625;28;20444;-76
2022/04/27 09:03:29;;;;;;;0.70;0.70;;;13.60;99.90;;;;;;5017064;28;20442;-75
2022/04/27 09:06:20;;;;;;;1.00;1.00;;;13.60;99.90;;;;;;5018608;28;20198;-73
2022/04/27 09:09:13;;;;;;;0.40;0.40;;;13.70;99.90;;;;;;5027319;28;20461;-77
2022/04/27 09:12:02;;;;;;;1.27;0.97;;;13.80;99.90;;;;;;5024957;28;20469;-74
2022/04/27 09:14:51;;;;;;;0.60;0.60;;;13.70;98.00;;;;;;5037682;28;20277;-77
2022/04/27 09:20:50;;;;;;;0.80;0.80;;;13.80;98.70;;;;;;5043753;28;20639;-74
2022/04/27 09:23:40;;;;;;;6.90;2.20;;;13.90;98.70;;;;;;5032780;28;20945;-73
2022/04/27 09:26:31;;;;;;;0.40;0.40;;;14.00;98.40;;;;;;5021102;28;20453;-76
2022/04/27 09:29:24;;;;;;;2.10;1.20;;;14.00;97.40;;;;;;5024335;28;20481;-75
2022/04/27 09:32:17;;;;;;;0.47;0.47;;;14.10;97.10;;;;;;5039117;28;20477;-75
2022/04/27 09:35:09;;;;;;;2.97;1.63;;;14.10;96.30;;;;;;5028676;28;20526;-71
2022/04/27 09:38:12;;;;;;;5.60;1.17;;;14.10;94.60;;;;;;5021694;28;20504;-74
2022/04/27 09:41:00;;;;;;;0.70;0.70;;;14.20;93.10;;;;;;5031795;28;20787;-74
2022/04/27 09:43:49;;;;;;;1.17;0.90;;;14.30;94.30;;;;;;5021752;28;20438;-72
2022/04/27 09:46:41;;;;;;;0.93;0.93;;;14.30;93.70;;;;;;5026448;28;20230;-72
2022/04/27 09:49:31;;;;;;;2.70;0.77;;;14.30;94.10;;;;;;5032365;28;20446;-75
2022/04/27 09:52:23;;;;;;;0.50;0.50;;;14.40;93.40;;;;;;5024852;28;20474;-75
2022/04/27 09:55:11;;;;;;;0.60;0.60;;;14.40;93.60;;;;;;5024344;28;20203;-75
2022/04/27 09:58:06;;;;;;;0.70;0.70;;;14.40;93.00;;;;;;5028335;28;20317;-75
2022/04/27 10:00:58;;;;;;;0.70;0.70;;;14.50;93.10;;;;;;5022220;28;20484;-74
2022/04/27 10:03:49;;;;;;;1.13;0.73;;;14.60;93.60;;;;;;5024394;28;20512;-76
2022/04/27 10:06:38;;;;;;;0.50;0.50;;;14.70;92.60;;;;;;5018221;28;20496;-75
2022/04/27 10:09:29;;;;;;;1.23;1.13;;;14.70;91.10;;;;;;5022289;28;20207;-75
2022/04/27 10:12:35;;;;;;;0.40;0.40;;;14.70;90.50;;;;;;5025751;28;20496;-74
2022/04/27 10:15:24;;;;;;;2.10;1.30;;;14.60;90.20;;;;;;5015213;28;20286;-75
2022/04/27 10:18:15;;;;;;;2.00;1.17;;;14.70;88.10;;;;;;5013276;28;20245;-75
2022/04/27 10:21:05;;;;;;;0.52;0.52;;;14.80;89.00;;;;;;5008946;28;20450;-74
2022/04/27 10:23:53;;;;;;;0.40;0.40;;;14.80;89.40;;;;;;5022051;28;20210;-77
2022/04/27 10:26:43;;;;;;;1.33;1.00;;;14.90;88.20;;;;;;5025008;28;20278;-75
2022/04/27 10:29:31;;;;;;;2.87;1.03;;;14.80;86.20;;;;;;5023440;28;20570;-76
2022/04/27 10:32:41;;;;;;;1.23;1.07;;;14.90;84.70;;;;;;5027623;28;20464;-74
2022/04/27 10:35:33;;;;;;;1.43;1.33;;;14.90;85.30;;;;;;5026229;28;20199;-75
2022/04/27 10:38:25;;;;;;;0.40;0.40;;;15.00;86.60;;;;;;5031246;28;20230;-75
2022/04/27 10:41:13;;;;;;;0.53;0.50;;;15.10;87.10;;;;;;5022620;28;20233;-75
2022/04/27 10:44:03;;;;;;;0.60;0.60;;;15.20;87.00;;;;;;5018096;28;20261;-75
2022/04/27 10:46:52;;;;;;;1.25;0.95;;;15.20;87.80;;;;;;5018647;28;20313;-75
2022/04/27 10:49:40;;;;;;;0.80;0.73;;;15.30;85.20;;;;;;5019716;28;20234;-74
2022/04/27 10:52:42;;;;;;;2.10;1.67;;;15.30;86.70;;;;;;5018663;28;20281;-74
2022/04/27 10:55:45;;;;;;;0.77;0.77;;;15.40;84.80;;;;;;5023250;28;20209;-75
2022/04/27 10:58:35;;;;;;;1.60;1.13;;;15.50;86.40;;;;;;5023657;28;20225;-76
2022/04/27 11:01:31;;;;;;;1.60;1.13;;;15.50;85.30;;;;;;5021787;28;20195;-80
2022/04/27 11:04:20;;;;;;;1.33;1.23;;;15.60;83.30;;;;;;5021905;28;20258;-74
2022/04/27 11:07:23;;;;;;;0.60;0.60;;;15.60;81.20;;;;;;5016594;28;20254;-74
2022/04/27 11:10:15;;;;;;;0.95;0.80;;;15.40;81.10;;;;;;5016381;28;20217;-73
2022/04/27 11:13:07;;;;;;;0.50;0.50;;;15.50;80.10;;;;;;5020374;28;20318;-73
2022/04/27 11:16:07;;;;;;;0.40;0.40;;;15.50;80.70;;;;;;5020295;28;20741;-76
2022/04/27 11:18:58;;;;;;;0.50;0.50;;;15.60;80.50;;;;;;5020878;28;20191;-74
2022/04/27 11:21:48;;;;;;;1.13;1.02;;;15.60;80.30;;;;;;5019724;28;20194;-76
2022/04/27 11:24:36;;;;;;;0.40;0.40;;;15.70;80.60;;;;;;5021212;28;20195;-73
2022/04/27 11:27:26;;;;;;;0.63;0.63;;;15.90;79.30;;;;;;5022813;28;20219;-76
2022/04/27 11:30:14;;;;;;;0.82;0.77;;;16.10;80.40;;;;;;5023953;28;20274;-74
2022/04/27 11:33:03;;;;;;;0.77;0.77;;;16.20;77.90;;;;;;5018461;28;20246;-74
2022/04/27 11:35:53;;;;;;;0.73;0.73;;;16.10;78.80;;;;;;5033035;28;20210;-76
2022/04/27 11:38:41;;;;;;;1.90;1.83;;;16.10;78.00;;;;;;5021423;28;20210;-76
2022/04/27 11:41:37;;;;;;;0.85;0.65;;;16.40;77.30;;;;;;5022371;28;20211;-73
2022/04/27 11:44:25;;;;;;;3.45;1.73;;;16.50;74.80;;;;;;5022145;28;20202;-76
2022/04/27 11:47:27;;;;;;;0.50;0.50;;;16.50;74.40;;;;;;5019929;28;20231;-76
2022/04/27 11:50:18;;;;;;;0.40;0.40;;;16.30;75.00;;;;;;5018269;28;20737;-76
2022/04/27 11:53:11;;;;;;;0.80;0.70;;;16.10;73.40;;;;;;5017524;28;20219;-75
2022/04/27 11:56:00;;;;;;;1.00;1.00;;;16.20;71.90;;;;;;5026306;28;20472;-73
2022/04/27 11:58:49;;;;;;;1.15;0.95;;;16.40;70.30;;;;;;5019782;28;20302;-76
2022/04/27 12:01:37;;;;;;;0.70;0.70;;;16.50;73.50;;;;;;5020396;28;20217;-74
2022/04/27 12:04:26;;;;;;;0.68;0.68;;;16.70;73.50;;;;;;5019152;28;20195;-75
2022/04/27 12:07:15;;;;;;;0.40;0.40;;;17.00;72.80;;;;;;5022438;28;20231;-75
2022/04/27 12:10:07;;;;;;;3.10;0.90;;;17.20;73.90;;;;;;5018444;28;20210;-73
2022/04/27 12:13:00;;;;;;;0.50;0.50;;;17.20;72.00;;;;;;5023973;28;20571;-72
2022/04/27 12:15:51;;;;;;;0.93;0.93;;;17.30;70.80;;;;;;5023598;28;20207;-75
2022/04/27 12:18:51;;;;;;;0.50;0.50;;;17.40;71.30;;;;;;5023309;28;20234;-73
2022/04/27 12:21:39;;;;;;;0.68;0.55;;;17.80;71.00;;;;;;5027354;28;20226;-74
2022/04/27 12:24:28;;;;;;;1.77;1.50;;;18.20;70.10;;;;;;5022424;28;20234;-75
2022/04/27 12:27:23;;;;;;;0.60;0.60;;;18.30;70.30;;;;;;5022509;28;20232;-75
2022/04/27 12:30:12;;;;;;;0.40;0.40;;;18.40;70.00;;;;;;5027130;28;20199;-76
2022/04/27 12:33:01;;;;;;;0.50;0.50;;;18.20;71.60;;;;;;5023546;28;20220;-74
2022/04/27 12:39:04;;;;;;;1.75;0.90;;;17.50;71.40;;;;;;5034804;28;20244;-74
2022/04/27 12:42:06;;;;;;;0.45;0.45;;;17.20;72.20;;;;;;5023125;28;20207;-76
2022/04/27 12:44:59;;;;;;;0.40;0.40;;;17.20;73.40;;;;;;5032660;28;20281;-74
2022/04/27 12:47:47;;;;;;;0.50;0.50;;;17.70;71.60;;;;;;5015629;28;20234;-77
2022/04/27 12:50:48;;;;;;;2.15;1.52;;;18.60;69.90;;;;;;5019044;28;20202;-75
2022/04/27 12:53:40;;;;;;;2.65;2.25;;;19.90;69.10;;;;;;5018783;28;20221;-78
2022/04/27 12:56:32;;;;;;;1.00;1.00;;;20.20;67.90;;;;;;5018646;28;20210;-76
2022/04/27 12:59:20;;;;;;;0.60;0.50;;;19.20;67.60;;;;;;5017407;28;20284;-75
2022/04/27 13:02:11;;;;;;;0.40;0.40;;;19.70;68.00;;;;;;5009557;28;20214;-74
2022/04/27 13:04:59;;;;;;;0.88;0.77;;;22.20;66.10;;;;;;5003869;28;20195;-74
2022/04/27 13:07:49;;;;;;;0.60;0.60;;;24.60;59.10;;;;;;5013380;28;20214;-74
2022/04/27 13:13:43;;;;;;;0.43;0.43;;;22.60;58.90;;;;;;5011707;28;20359;-72
2022/04/27 13:16:31;;;;;;;4.43;1.60;;;20.60;60.30;;;;;;5011994;28;20310;-82
2022/04/27 13:19:21;;;;;;;0.45;0.45;;;19.40;62.90;;;;;;5013499;28;20202;-76
2022/04/27 13:22:09;;;;;;;0.45;0.45;;;18.50;64.70;;;;;;5023179;28;20198;-75
2022/04/27 13:24:58;;;;;;;2.05;1.50;;;18.30;65.30;;;;;;5005242;28;20683;-78
2022/04/27 13:27:46;;;;;;;0.50;0.50;;;19.40;63.30;;;;;;5013722;28;20726;-76
2022/04/27 13:30:35;;;;;;;0.88;0.88;;;22.40;59.80;;;;;;5012724;28;20195;-75
2022/04/27 13:33:23;;;;;;;0.50;0.50;;;25.70;56.00;;;;;;5015639;28;20219;-75
2022/04/27 13:36:13;;;;;;;1.17;1.00;;;26.00;53.50;;;;;;5011993;28;20218;-76
2022/04/27 13:39:01;;;;;;;0.55;0.47;;;25.10;53.00;;;;;;5031252;28;20230;-74
2022/04/27 13:41:51;;;;;;;1.27;1.08;;;24.00;55.10;;;;;;5014010;28;20631;-76
2022/04/27 13:44:40;;;;;;;3.13;0.80;;;23.50;53.20;;;;;;5016230;28;20575;-76
2022/04/27 13:47:31;;;;;;;0.90;0.90;;;21.70;54.30;;;;;;5013941;28;20234;-77
2022/04/27 13:50:19;;;;;;;0.63;0.63;;;20.60;56.00;;;;;;5015652;28;20210;-76
2022/04/27 13:53:12;;;;;;;0.60;0.60;;;21.20;55.20;;;;;;5021140;28;20210;-76
2022/04/27 13:56:00;;;;;;;0.40;0.40;;;23.20;53.00;;;;;;5037220;28;20264;-75
2022/04/27 13:58:49;;;;;;;0.57;0.57;;;24.70;52.30;;;;;;5036097;28;20236;-76
2022/04/27 14:01:38;;;;;;;0.52;0.52;;;25.50;51.20;;;;;;5028541;28;20202;-75
2022/04/27 14:04:27;;;;;;;1.40;1.10;;;25.60;49.20;;;;;;5019209;28;20637;-75
2022/04/27 14:07:15;;;;;;;0.40;0.40;;;25.80;48.30;;;;;;5016902;28;20261;-75
2022/04/27 14:10:06;;;;;;;1.05;1.05;;;25.00;48.30;;;;;;5015885;28;20253;-75
2022/04/27 14:13:14;;;;;;;1.58;1.10;;;24.30;47.90;;;;;;5017986;28;20688;-77
2022/04/27 14:19:08;;;;;;;0.45;0.43;;;21.40;51.00;;;;;;5006442;28;20203;-77
2022/04/27 14:21:58;;;;;;;1.05;0.95;;;20.60;52.50;;;;;;5005170;28;20334;-79
2022/04/27 14:24:46;;;;;;;0.85;0.85;;;20.80;52.70;;;;;;5008678;28;20198;-79
2022/04/27 14:27:36;;;;;;;1.35;1.25;;;21.50;51.10;;;;;;5004922;28;20228;-76
2022/04/27 14:30:24;;;;;;;0.60;0.60;;;22.30;49.90;;;;;;5007417;28;20199;-77
2022/04/27 14:33:12;;;;;;;0.68;0.68;;;23.30;50.00;;;;;;5005472;28;20215;-76
2022/04/27 14:36:01;;;;;;;0.40;0.40;;;23.90;48.10;;;;;;5005901;28;20271;-77
2022/04/27 14:38:49;;;;;;;0.60;0.60;;;23.20;49.20;;;;;;5012942;28;20231;-77
2022/04/27 14:41:37;;;;;;;0.60;0.60;;;21.80;50.50;;;;;;5008723;28;20199;-77
2022/04/27 14:44:27;;;;;;;1.65;1.55;;;21.40;51.40;;;;;;5009000;28;20690;-76
2022/04/27 14:47:15;;;;;;;1.48;1.23;;;21.40;52.30;;;;;;5013300;28;20233;-77
2022/04/27 14:50:03;;;;;;;1.08;0.98;;;21.70;51.80;;;;;;5014734;28;20622;-75
2022/04/27 14:52:52;;;;;;;0.40;0.40;;;21.30;52.40;;;;;;5016075;28;20205;-78
2022/04/27 14:55:40;;;;;;;3.03;1.20;;;21.20;53.80;;;;;;5005420;28;20195;-76
2022/04/27 14:58:28;;;;;;;0.40;0.40;;;21.80;53.80;;;;;;5003571;28;20214;-74
2022/04/27 15:01:18;;;;;;;2.05;1.40;;;22.70;52.50;;;;;;5008868;28;20575;-76
2022/04/27 15:04:06;;;;;;;0.60;0.60;;;23.70;51.30;;;;;;5008641;28;20203;-75
2022/04/27 15:06:54;;;;;;;0.40;0.40;;;24.70;49.90;;;;;;5013358;28;20234;-74
2022/04/27 15:09:43;;;;;;;0.40;0.40;;;25.60;48.40;;;;;;5015522;28;20219;-73
2022/04/27 15:12:31;;;;;;;1.55;1.45;;;25.40;48.00;;;;;;5014069;28;20213;-72
2022/04/27 15:15:21;;;;;;;0.98;0.73;;;24.40;47.90;;;;;;5013630;28;20207;-73
2022/04/27 15:18:12;;;;;;;0.77;0.77;;;23.50;49.40;;;;;;5017319;28;20230;-74